sensor_id;sensor_type;location;lat;lon;timestamp;P1;durP1;ratioP1;P2;durP2;ratioP2
49193;SDS011;35029;50.804;12.866;2022-09-11T00:01:06;2.30;;;2.10;;
49193;SDS011;35029;50.804;12.866;2022-09-11T00:03:35;3.03;;;2.42;;
49193;SDS011;35029;50.804;12.866;2022-09-11T00:06:02;2.60;;;2.10;;
49193;SDS011;35029;50.804;12.866;2022-09-11T00:08:30;2.30;;;1.73;;
49193;SDS011;35029;50.804;12.866;2022-09-11T00:11:10;2.80;;;2.17;;
49193;SDS011;35029;50.804;12.866;2022-09-11T00:13:45;3.70;;;1.90;;
49193;SDS011;35029;50.804;12.866;2022-09-11T00:16:29;2.30;;;1.83;;
49193;SDS011;35029;50.804;12.866;2022-09-11T00:19:05;2.15;;;1.70;;
49193;SDS011;35029;50.804;12.866;2022-09-11T00:21:33;2.42;;;1.77;;
49193;SDS011;35029;50.804;12.866;2022-09-11T00:23:59;4.65;;;2.00;;
49193;SDS011;35029;50.804;12.866;2022-09-11T00:26:26;2.78;;;2.00;;
49193;SDS011;35029;50.804;12.866;2022-09-11T00:28:52;1.77;;;1.60;;
49193;SDS011;35029;50.804;12.866;2022-09-11T00:31:21;2.50;;;1.90;;
49193;SDS011;35029;50.804;12.866;2022-09-11T00:33:52;3.28;;;1.95;;
49193;SDS011;35029;50.804;12.866;2022-09-11T00:36:20;2.47;;;1.98;;
49193;SDS011;35029;50.804;12.866;2022-09-11T00:38:48;2.72;;;2.10;;
49193;SDS011;35029;50.804;12.866;2022-09-11T00:41:22;2.38;;;1.70;;
49193;SDS011;35029;50.804;12.866;2022-09-11T00:43:53;1.70;;;1.60;;
49193;SDS011;35029;50.804;12.866;2022-09-11T00:46:19;1.88;;;1.50;;
49193;SDS011;35029;50.804;12.866;2022-09-11T00:48:48;1.67;;;1.55;;
49193;SDS011;35029;50.804;12.866;2022-09-11T00:51:18;3.22;;;1.85;;
49193;SDS011;35029;50.804;12.866;2022-09-11T00:53:49;2.25;;;1.98;;
49193;SDS011;35029;50.804;12.866;2022-09-11T00:56:17;2.63;;;2.20;;
49193;SDS011;35029;50.804;12.866;2022-09-11T00:58:44;2.35;;;1.83;;
49193;SDS011;35029;50.804;12.866;2022-09-11T01:01:13;4.30;;;1.83;;
49193;SDS011;35029;50.804;12.866;2022-09-11T01:03:40;2.55;;;2.08;;
49193;SDS011;35029;50.804;12.866;2022-09-11T01:06:07;3.47;;;1.90;;
49193;SDS011;35029;50.804;12.866;2022-09-11T01:08:35;1.88;;;1.60;;
49193;SDS011;35029;50.804;12.866;2022-09-11T01:11:19;2.13;;;1.92;;
49193;SDS011;35029;50.804;12.866;2022-09-11T01:16:37;2.92;;;1.60;;
49193;SDS011;35029;50.804;12.866;2022-09-11T01:22:25;6.03;;;2.25;;
49193;SDS011;35029;50.804;12.866;2022-09-11T01:30:41;3.53;;;2.28;;
49193;SDS011;35029;50.804;12.866;2022-09-11T01:33:17;2.38;;;1.80;;
49193;SDS011;35029;50.804;12.866;2022-09-11T01:36:03;2.83;;;2.15;;
49193;SDS011;35029;50.804;12.866;2022-09-11T01:44:09;5.28;;;2.05;;
49193;SDS011;35029;50.804;12.866;2022-09-11T01:46:40;4.97;;;2.47;;
49193;SDS011;35029;50.804;12.866;2022-09-11T01:49:14;3.65;;;2.17;;
49193;SDS011;35029;50.804;12.866;2022-09-11T01:51:43;4.40;;;2.30;;
49193;SDS011;35029;50.804;12.866;2022-09-11T01:54:14;2.40;;;2.20;;
49193;SDS011;35029;50.804;12.866;2022-09-11T01:56:49;3.78;;;2.38;;
49193;SDS011;35029;50.804;12.866;2022-09-11T01:59:22;2.40;;;2.20;;
49193;SDS011;35029;50.804;12.866;2022-09-11T02:02:01;2.30;;;2.10;;
49193;SDS011;35029;50.804;12.866;2022-09-11T02:04:32;2.83;;;2.00;;
49193;SDS011;35029;50.804;12.866;2022-09-11T02:07:05;2.17;;;1.95;;
49193;SDS011;35029;50.804;12.866;2022-09-11T02:09:39;2.35;;;2.15;;
49193;SDS011;35029;50.804;12.866;2022-09-11T02:12:10;1.92;;;1.83;;
49193;SDS011;35029;50.804;12.866;2022-09-11T02:14:40;3.90;;;2.58;;
49193;SDS011;35029;50.804;12.866;2022-09-11T02:17:16;4.63;;;2.40;;
49193;SDS011;35029;50.804;12.866;2022-09-11T02:19:55;3.88;;;2.03;;
49193;SDS011;35029;50.804;12.866;2022-09-11T02:22:24;3.25;;;2.40;;
49193;SDS011;35029;50.804;12.866;2022-09-11T02:24:51;4.30;;;2.15;;
49193;SDS011;35029;50.804;12.866;2022-09-11T02:27:19;3.20;;;2.25;;
49193;SDS011;35029;50.804;12.866;2022-09-11T02:29:49;2.10;;;1.90;;
49193;SDS011;35029;50.804;12.866;2022-09-11T02:32:18;2.85;;;2.10;;
49193;SDS011;35029;50.804;12.866;2022-09-11T02:34:45;2.47;;;2.10;;
49193;SDS011;35029;50.804;12.866;2022-09-11T02:37:15;4.05;;;2.30;;
49193;SDS011;35029;50.804;12.866;2022-09-11T02:40:08;3.13;;;2.03;;
49193;SDS011;35029;50.804;12.866;2022-09-11T02:45:49;2.67;;;2.05;;
49193;SDS011;35029;50.804;12.866;2022-09-11T02:48:27;3.47;;;2.28;;
49193;SDS011;35029;50.804;12.866;2022-09-11T02:51:12;4.80;;;1.92;;
49193;SDS011;35029;50.804;12.866;2022-09-11T02:54:02;9.35;;;2.30;;
49193;SDS011;35029;50.804;12.866;2022-09-11T02:56:38;5.70;;;2.55;;
49193;SDS011;35029;50.804;12.866;2022-09-11T02:59:19;4.75;;;2.53;;
49193;SDS011;35029;50.804;12.866;2022-09-11T03:01:54;2.53;;;2.10;;
49193;SDS011;35029;50.804;12.866;2022-09-11T03:04:25;4.97;;;2.22;;
49193;SDS011;35029;50.804;12.866;2022-09-11T03:06:52;2.65;;;2.22;;
49193;SDS011;35029;50.804;12.866;2022-09-11T03:09:18;2.50;;;2.30;;
49193;SDS011;35029;50.804;12.866;2022-09-11T03:11:49;2.45;;;2.25;;
49193;SDS011;35029;50.804;12.866;2022-09-11T03:14:14;4.80;;;2.67;;
49193;SDS011;35029;50.804;12.866;2022-09-11T03:16:41;2.60;;;2.40;;
49193;SDS011;35029;50.804;12.866;2022-09-11T03:19:09;3.35;;;2.20;;
49193;SDS011;35029;50.804;12.866;2022-09-11T03:21:36;2.20;;;2.05;;
49193;SDS011;35029;50.804;12.866;2022-09-11T03:24:03;5.25;;;2.50;;
49193;SDS011;35029;50.804;12.866;2022-09-11T03:26:31;7.20;;;3.10;;
49193;SDS011;35029;50.804;12.866;2022-09-11T03:28:58;3.05;;;2.75;;
49193;SDS011;35029;50.804;12.866;2022-09-11T03:31:24;4.15;;;2.42;;
49193;SDS011;35029;50.804;12.866;2022-09-11T03:33:50;2.80;;;2.35;;
49193;SDS011;35029;50.804;12.866;2022-09-11T03:36:17;3.08;;;2.58;;
49193;SDS011;35029;50.804;12.866;2022-09-11T03:38:44;2.50;;;2.30;;
49193;SDS011;35029;50.804;12.866;2022-09-11T03:41:13;2.42;;;2.22;;
49193;SDS011;35029;50.804;12.866;2022-09-11T03:43:39;4.57;;;2.80;;
49193;SDS011;35029;50.804;12.866;2022-09-11T03:46:06;7.47;;;2.83;;
49193;SDS011;35029;50.804;12.866;2022-09-11T03:48:32;3.75;;;3.05;;
49193;SDS011;35029;50.804;12.866;2022-09-11T03:51:00;4.85;;;3.00;;
49193;SDS011;35029;50.804;12.866;2022-09-11T03:53:30;4.38;;;2.80;;
49193;SDS011;35029;50.804;12.866;2022-09-11T03:55:58;2.92;;;2.72;;
49193;SDS011;35029;50.804;12.866;2022-09-11T03:58:26;4.47;;;2.63;;
49193;SDS011;35029;50.804;12.866;2022-09-11T04:00:52;3.08;;;2.60;;
49193;SDS011;35029;50.804;12.866;2022-09-11T04:03:18;3.67;;;2.35;;
49193;SDS011;35029;50.804;12.866;2022-09-11T04:05:54;3.42;;;3.10;;
49193;SDS011;35029;50.804;12.866;2022-09-11T04:08:21;3.05;;;2.75;;
49193;SDS011;35029;50.804;12.866;2022-09-11T04:10:47;4.50;;;2.53;;
49193;SDS011;35029;50.804;12.866;2022-09-11T04:13:13;3.88;;;2.95;;
49193;SDS011;35029;50.804;12.866;2022-09-11T04:15:40;4.25;;;2.88;;
49193;SDS011;35029;50.804;12.866;2022-09-11T04:18:06;4.47;;;3.20;;
49193;SDS011;35029;50.804;12.866;2022-09-11T04:20:36;3.28;;;2.97;;
49193;SDS011;35029;50.804;12.866;2022-09-11T04:23:03;3.78;;;2.80;;
49193;SDS011;35029;50.804;12.866;2022-09-11T04:25:29;3.50;;;2.90;;
49193;SDS011;35029;50.804;12.866;2022-09-11T04:27:56;3.95;;;2.80;;
49193;SDS011;35029;50.804;12.866;2022-09-11T04:30:22;3.55;;;3.00;;
49193;SDS011;35029;50.804;12.866;2022-09-11T04:32:49;2.85;;;2.65;;
49193;SDS011;35029;50.804;12.866;2022-09-11T04:35:15;3.10;;;2.78;;
49193;SDS011;35029;50.804;12.866;2022-09-11T04:37:48;5.78;;;3.25;;
49193;SDS011;35029;50.804;12.866;2022-09-11T04:40:15;3.42;;;3.13;;
49193;SDS011;35029;50.804;12.866;2022-09-11T04:42:43;5.50;;;3.53;;
49193;SDS011;35029;50.804;12.866;2022-09-11T04:45:09;5.70;;;3.80;;
49193;SDS011;35029;50.804;12.866;2022-09-11T04:47:35;5.70;;;4.03;;
49193;SDS011;35029;50.804;12.866;2022-09-11T04:50:02;5.03;;;4.57;;
49193;SDS011;35029;50.804;12.866;2022-09-11T04:52:27;5.18;;;4.68;;
49193;SDS011;35029;50.804;12.866;2022-09-11T04:54:53;5.30;;;4.80;;
49193;SDS011;35029;50.804;12.866;2022-09-11T04:57:19;6.80;;;5.97;;
49193;SDS011;35029;50.804;12.866;2022-09-11T04:59:45;6.97;;;4.65;;
49193;SDS011;35029;50.804;12.866;2022-09-11T05:02:12;5.85;;;5.25;;
49193;SDS011;35029;50.804;12.866;2022-09-11T05:04:42;7.78;;;6.10;;
49193;SDS011;35029;50.804;12.866;2022-09-11T05:07:10;6.32;;;5.25;;
49193;SDS011;35029;50.804;12.866;2022-09-11T05:09:39;8.13;;;7.25;;
49193;SDS011;35029;50.804;12.866;2022-09-11T05:12:05;8.27;;;7.35;;
49193;SDS011;35029;50.804;12.866;2022-09-11T05:14:33;10.82;;;6.93;;
49193;SDS011;35029;50.804;12.866;2022-09-11T05:17:01;7.15;;;6.10;;
49193;SDS011;35029;50.804;12.866;2022-09-11T05:19:28;6.80;;;6.20;;
49193;SDS011;35029;50.804;12.866;2022-09-11T05:21:53;7.38;;;6.43;;
49193;SDS011;35029;50.804;12.866;2022-09-11T05:24:21;8.10;;;7.00;;
49193;SDS011;35029;50.804;12.866;2022-09-11T05:26:46;8.15;;;7.28;;
49193;SDS011;35029;50.804;12.866;2022-09-11T05:29:13;7.88;;;6.40;;
49193;SDS011;35029;50.804;12.866;2022-09-11T05:31:51;7.65;;;6.95;;
49193;SDS011;35029;50.804;12.866;2022-09-11T05:34:18;9.70;;;8.70;;
49193;SDS011;35029;50.804;12.866;2022-09-11T05:36:44;9.18;;;8.15;;
49193;SDS011;35029;50.804;12.866;2022-09-11T05:39:10;8.88;;;8.00;;
49193;SDS011;35029;50.804;12.866;2022-09-11T05:41:38;12.13;;;8.18;;
49193;SDS011;35029;50.804;12.866;2022-09-11T05:44:03;8.68;;;7.55;;
49193;SDS011;35029;50.804;12.866;2022-09-11T05:46:30;8.30;;;7.60;;
49193;SDS011;35029;50.804;12.866;2022-09-11T05:49:00;12.43;;;11.15;;
49193;SDS011;35029;50.804;12.866;2022-09-11T05:51:28;11.45;;;10.20;;
49193;SDS011;35029;50.804;12.866;2022-09-11T05:53:56;13.75;;;12.27;;
49193;SDS011;35029;50.804;12.866;2022-09-11T05:56:22;13.75;;;12.45;;
49193;SDS011;35029;50.804;12.866;2022-09-11T05:58:52;13.85;;;12.43;;
49193;SDS011;35029;50.804;12.866;2022-09-11T06:01:24;14.20;;;12.80;;
49193;SDS011;35029;50.804;12.866;2022-09-11T06:03:59;14.52;;;13.13;;
49193;SDS011;35029;50.804;12.866;2022-09-11T06:06:28;16.85;;;14.77;;
49193;SDS011;35029;50.804;12.866;2022-09-11T06:08:55;16.92;;;15.20;;
49193;SDS011;35029;50.804;12.866;2022-09-11T06:11:20;19.48;;;17.50;;
49193;SDS011;35029;50.804;12.866;2022-09-11T06:13:47;18.48;;;16.55;;
49193;SDS011;35029;50.804;12.866;2022-09-11T06:16:16;18.13;;;16.23;;
49193;SDS011;35029;50.804;12.866;2022-09-11T06:18:43;19.27;;;17.40;;
49193;SDS011;35029;50.804;12.866;2022-09-11T06:21:13;16.30;;;14.65;;
49193;SDS011;35029;50.804;12.866;2022-09-11T06:23:49;19.38;;;17.38;;
49193;SDS011;35029;50.804;12.866;2022-09-11T06:26:18;17.77;;;16.02;;
49193;SDS011;35029;50.804;12.866;2022-09-11T06:28:46;21.00;;;16.42;;
49193;SDS011;35029;50.804;12.866;2022-09-11T06:31:14;16.70;;;15.02;;
49193;SDS011;35029;50.804;12.866;2022-09-11T06:33:43;22.38;;;17.08;;
49193;SDS011;35029;50.804;12.866;2022-09-11T06:36:10;18.55;;;16.67;;
49193;SDS011;35029;50.804;12.866;2022-09-11T06:38:38;16.45;;;14.85;;
49193;SDS011;35029;50.804;12.866;2022-09-11T06:41:07;21.23;;;18.48;;
49193;SDS011;35029;50.804;12.866;2022-09-11T06:43:36;23.15;;;18.95;;
49193;SDS011;35029;50.804;12.866;2022-09-11T06:46:09;23.17;;;20.15;;
49193;SDS011;35029;50.804;12.866;2022-09-11T06:48:40;20.60;;;18.50;;
49193;SDS011;35029;50.804;12.866;2022-09-11T06:51:08;22.05;;;19.75;;
49193;SDS011;35029;50.804;12.866;2022-09-11T06:53:35;23.67;;;20.85;;
49193;SDS011;35029;50.804;12.866;2022-09-11T06:56:08;21.83;;;19.55;;
49193;SDS011;35029;50.804;12.866;2022-09-11T06:58:38;23.58;;;21.23;;
49193;SDS011;35029;50.804;12.866;2022-09-11T07:01:04;23.00;;;19.80;;
49193;SDS011;35029;50.804;12.866;2022-09-11T07:03:33;20.92;;;18.83;;
49193;SDS011;35029;50.804;12.866;2022-09-11T07:06:00;22.88;;;20.55;;
49193;SDS011;35029;50.804;12.866;2022-09-11T07:08:27;21.40;;;19.20;;
49193;SDS011;35029;50.804;12.866;2022-09-11T07:10:52;21.48;;;19.45;;
49193;SDS011;35029;50.804;12.866;2022-09-11T07:13:18;21.35;;;19.20;;
49193;SDS011;35029;50.804;12.866;2022-09-11T07:15:45;24.17;;;21.83;;
49193;SDS011;35029;50.804;12.866;2022-09-11T07:18:14;22.23;;;19.92;;
49193;SDS011;35029;50.804;12.866;2022-09-11T07:20:40;21.75;;;18.77;;
49193;SDS011;35029;50.804;12.866;2022-09-11T07:23:07;20.88;;;18.58;;
49193;SDS011;35029;50.804;12.866;2022-09-11T07:25:36;21.95;;;18.65;;
49193;SDS011;35029;50.804;12.866;2022-09-11T07:28:03;22.52;;;20.08;;
49193;SDS011;35029;50.804;12.866;2022-09-11T07:30:29;22.35;;;20.10;;
49193;SDS011;35029;50.804;12.866;2022-09-11T07:32:56;21.58;;;19.67;;
49193;SDS011;35029;50.804;12.866;2022-09-11T07:35:22;21.33;;;19.38;;
49193;SDS011;35029;50.804;12.866;2022-09-11T07:37:51;22.55;;;20.52;;
49193;SDS011;35029;50.804;12.866;2022-09-11T07:40:22;24.45;;;22.05;;
49193;SDS011;35029;50.804;12.866;2022-09-11T07:42:48;22.70;;;20.50;;
49193;SDS011;35029;50.804;12.866;2022-09-11T07:45:14;25.05;;;22.70;;
49193;SDS011;35029;50.804;12.866;2022-09-11T07:47:41;25.65;;;23.08;;
49193;SDS011;35029;50.804;12.866;2022-09-11T07:50:08;25.65;;;23.08;;
49193;SDS011;35029;50.804;12.866;2022-09-11T07:52:35;26.27;;;23.65;;
49193;SDS011;35029;50.804;12.866;2022-09-11T07:55:01;26.42;;;23.65;;
49193;SDS011;35029;50.804;12.866;2022-09-11T07:57:30;24.45;;;22.13;;
49193;SDS011;35029;50.804;12.866;2022-09-11T07:59:59;26.63;;;24.08;;
49193;SDS011;35029;50.804;12.866;2022-09-11T08:02:29;26.55;;;23.73;;
49193;SDS011;35029;50.804;12.866;2022-09-11T08:04:55;24.83;;;22.45;;
49193;SDS011;35029;50.804;12.866;2022-09-11T08:07:21;25.50;;;23.08;;
49193;SDS011;35029;50.804;12.866;2022-09-11T08:09:47;24.38;;;21.98;;
49193;SDS011;35029;50.804;12.866;2022-09-11T08:12:13;27.23;;;24.52;;
49193;SDS011;35029;50.804;12.866;2022-09-11T08:14:39;26.23;;;22.13;;
49193;SDS011;35029;50.804;12.866;2022-09-11T08:17:14;22.50;;;19.95;;
49193;SDS011;35029;50.804;12.866;2022-09-11T08:19:40;23.42;;;20.88;;
49193;SDS011;35029;50.804;12.866;2022-09-11T08:22:06;21.55;;;19.35;;
49193;SDS011;35029;50.804;12.866;2022-09-11T08:24:39;25.88;;;22.27;;
49193;SDS011;35029;50.804;12.866;2022-09-11T08:27:05;21.65;;;19.40;;
49193;SDS011;35029;50.804;12.866;2022-09-11T08:29:33;19.52;;;17.23;;
49193;SDS011;35029;50.804;12.866;2022-09-11T08:32:00;20.52;;;18.38;;
49193;SDS011;35029;50.804;12.866;2022-09-11T08:34:26;17.33;;;15.65;;
49193;SDS011;35029;50.804;12.866;2022-09-11T08:36:51;17.40;;;15.63;;
49193;SDS011;35029;50.804;12.866;2022-09-11T08:39:17;17.85;;;15.07;;
49193;SDS011;35029;50.804;12.866;2022-09-11T08:41:48;15.20;;;13.70;;
49193;SDS011;35029;50.804;12.866;2022-09-11T08:47:31;14.43;;;12.57;;
49193;SDS011;35029;50.804;12.866;2022-09-11T08:50:08;15.82;;;13.73;;
49193;SDS011;35029;50.804;12.866;2022-09-11T08:52:40;13.65;;;12.18;;
49193;SDS011;35029;50.804;12.866;2022-09-11T08:55:11;13.15;;;11.80;;
49193;SDS011;35029;50.804;12.866;2022-09-11T08:57:49;11.93;;;10.65;;
49193;SDS011;35029;50.804;12.866;2022-09-11T09:09:03;9.20;;;7.50;;
49193;SDS011;35029;50.804;12.866;2022-09-11T09:17:38;9.80;;;7.38;;
49193;SDS011;35029;50.804;12.866;2022-09-11T09:20:18;7.07;;;6.47;;
49193;SDS011;35029;50.804;12.866;2022-09-11T09:25:34;6.60;;;5.80;;
49193;SDS011;35029;50.804;12.866;2022-09-11T09:28:07;11.90;;;6.40;;
49193;SDS011;35029;50.804;12.866;2022-09-11T09:30:55;9.07;;;6.47;;
49193;SDS011;35029;50.804;12.866;2022-09-11T09:35:58;7.57;;;6.70;;
49193;SDS011;35029;50.804;12.866;2022-09-11T09:38:36;8.27;;;7.10;;
49193;SDS011;35029;50.804;12.866;2022-09-11T09:46:48;7.28;;;5.47;;
49193;SDS011;35029;50.804;12.866;2022-09-11T09:49:17;7.55;;;5.50;;
49193;SDS011;35029;50.804;12.866;2022-09-11T09:51:50;6.97;;;6.30;;
49193;SDS011;35029;50.804;12.866;2022-09-11T09:54:23;8.55;;;7.60;;
49193;SDS011;35029;50.804;12.866;2022-09-11T09:57:01;9.40;;;7.82;;
49193;SDS011;35029;50.804;12.866;2022-09-11T09:59:34;9.55;;;7.97;;
49193;SDS011;35029;50.804;12.866;2022-09-11T10:02:05;12.57;;;8.73;;
49193;SDS011;35029;50.804;12.866;2022-09-11T10:04:31;9.10;;;8.00;;
49193;SDS011;35029;50.804;12.866;2022-09-11T10:09:35;9.65;;;8.20;;
49193;SDS011;35029;50.804;12.866;2022-09-11T10:12:15;9.48;;;7.70;;
49193;SDS011;35029;50.804;12.866;2022-09-11T10:14:50;10.85;;;8.70;;
49193;SDS011;35029;50.804;12.866;2022-09-11T10:17:21;18.70;;;10.85;;
49193;SDS011;35029;50.804;12.866;2022-09-11T10:19:47;10.52;;;9.50;;
49193;SDS011;35029;50.804;12.866;2022-09-11T10:22:29;12.70;;;11.48;;
49193;SDS011;35029;50.804;12.866;2022-09-11T10:25:08;20.60;;;18.25;;
49193;SDS011;35029;50.804;12.866;2022-09-11T10:28:01;25.30;;;21.50;;
49193;SDS011;35029;50.804;12.866;2022-09-11T10:30:54;32.78;;;23.52;;
49193;SDS011;35029;50.804;12.866;2022-09-11T10:35:51;29.27;;;23.13;;
49193;SDS011;35029;50.804;12.866;2022-09-11T10:38:19;30.80;;;22.35;;
49193;SDS011;35029;50.804;12.866;2022-09-11T10:40:57;24.85;;;21.08;;
49193;SDS011;35029;50.804;12.866;2022-09-11T10:43:42;25.00;;;21.88;;
49193;SDS011;35029;50.804;12.866;2022-09-11T10:51:27;26.55;;;22.48;;
49193;SDS011;35029;50.804;12.866;2022-09-11T10:54:00;26.10;;;22.48;;
49193;SDS011;35029;50.804;12.866;2022-09-11T11:02:36;31.42;;;26.25;;
49193;SDS011;35029;50.804;12.866;2022-09-11T11:05:06;28.88;;;25.70;;
49193;SDS011;35029;50.804;12.866;2022-09-11T11:07:43;28.27;;;25.08;;
49193;SDS011;35029;50.804;12.866;2022-09-11T11:15:49;28.63;;;24.80;;
49193;SDS011;35029;50.804;12.866;2022-09-11T11:18:33;30.95;;;26.98;;
49193;SDS011;35029;50.804;12.866;2022-09-11T11:37:39;32.67;;;28.23;;
49193;SDS011;35029;50.804;12.866;2022-09-11T11:43:05;34.92;;;27.25;;
49193;SDS011;35029;50.804;12.866;2022-09-11T11:45:39;29.00;;;25.73;;
49193;SDS011;35029;50.804;12.866;2022-09-11T11:48:17;33.13;;;25.67;;
49193;SDS011;35029;50.804;12.866;2022-09-11T11:50:50;29.40;;;25.35;;
49193;SDS011;35029;50.804;12.866;2022-09-11T11:53:34;30.23;;;24.05;;
49193;SDS011;35029;50.804;12.866;2022-09-11T11:56:14;29.77;;;21.75;;
49193;SDS011;35029;50.804;12.866;2022-09-11T11:58:51;29.10;;;23.67;;
49193;SDS011;35029;50.804;12.866;2022-09-11T12:01:23;31.48;;;20.63;;
49193;SDS011;35029;50.804;12.866;2022-09-11T12:07:02;22.13;;;16.98;;
49193;SDS011;35029;50.804;12.866;2022-09-11T12:09:29;25.27;;;18.83;;
49193;SDS011;35029;50.804;12.866;2022-09-11T12:11:57;33.22;;;24.73;;
49193;SDS011;35029;50.804;12.866;2022-09-11T12:14:30;33.20;;;23.17;;
49193;SDS011;35029;50.804;12.866;2022-09-11T12:17:17;39.72;;;25.90;;
49193;SDS011;35029;50.804;12.866;2022-09-11T12:22:34;35.97;;;25.52;;
49193;SDS011;35029;50.804;12.866;2022-09-11T12:32:46;33.15;;;22.15;;
49193;SDS011;35029;50.804;12.866;2022-09-11T12:35:20;32.50;;;24.25;;
49193;SDS011;35029;50.804;12.866;2022-09-11T12:40:24;26.23;;;21.27;;
49193;SDS011;35029;50.804;12.866;2022-09-11T12:42:54;25.52;;;20.13;;
49193;SDS011;35029;50.804;12.866;2022-09-11T12:45:29;28.00;;;20.65;;
49193;SDS011;35029;50.804;12.866;2022-09-11T12:48:06;26.50;;;20.13;;
49193;SDS011;35029;50.804;12.866;2022-09-11T12:50:35;27.40;;;20.67;;
49193;SDS011;35029;50.804;12.866;2022-09-11T12:53:01;26.02;;;19.48;;
49193;SDS011;35029;50.804;12.866;2022-09-11T12:55:36;22.45;;;18.15;;
49193;SDS011;35029;50.804;12.866;2022-09-11T12:58:06;26.63;;;18.38;;
49193;SDS011;35029;50.804;12.866;2022-09-11T13:00:46;22.27;;;16.73;;
49193;SDS011;35029;50.804;12.866;2022-09-11T13:03:22;21.83;;;16.10;;
49193;SDS011;35029;50.804;12.866;2022-09-11T13:05:54;20.17;;;17.15;;
49193;SDS011;35029;50.804;12.866;2022-09-11T13:08:25;19.83;;;15.65;;
49193;SDS011;35029;50.804;12.866;2022-09-11T13:10:52;20.02;;;15.10;;
49193;SDS011;35029;50.804;12.866;2022-09-11T13:13:57;19.05;;;14.77;;
49193;SDS011;35029;50.804;12.866;2022-09-11T13:16:24;17.42;;;13.25;;
49193;SDS011;35029;50.804;12.866;2022-09-11T13:18:57;16.80;;;13.75;;
49193;SDS011;35029;50.804;12.866;2022-09-11T13:21:27;14.27;;;12.52;;
49193;SDS011;35029;50.804;12.866;2022-09-11T13:23:52;15.35;;;12.40;;
49193;SDS011;35029;50.804;12.866;2022-09-11T13:28:53;13.65;;;10.93;;
49193;SDS011;35029;50.804;12.866;2022-09-11T13:31:31;10.80;;;9.10;;
49193;SDS011;35029;50.804;12.866;2022-09-11T13:34:00;9.25;;;8.25;;
49193;SDS011;35029;50.804;12.866;2022-09-11T13:36:30;10.38;;;7.80;;
49193;SDS011;35029;50.804;12.866;2022-09-11T13:38:58;8.68;;;7.50;;
49193;SDS011;35029;50.804;12.866;2022-09-11T13:41:27;6.70;;;6.00;;
49193;SDS011;35029;50.804;12.866;2022-09-11T13:43:59;10.07;;;6.68;;
49193;SDS011;35029;50.804;12.866;2022-09-11T13:46:29;7.20;;;6.43;;
49193;SDS011;35029;50.804;12.866;2022-09-11T13:49:23;6.78;;;6.10;;
49193;SDS011;35029;50.804;12.866;2022-09-11T13:51:42;8.13;;;6.75;;
49193;SDS011;35029;50.804;12.866;2022-09-11T13:54:12;7.05;;;6.35;;
49193;SDS011;35029;50.804;12.866;2022-09-11T13:59:52;8.02;;;6.57;;
49193;SDS011;35029;50.804;12.866;2022-09-11T14:04:49;8.65;;;7.00;;
49193;SDS011;35029;50.804;12.866;2022-09-11T14:07:20;9.00;;;7.00;;
49193;SDS011;35029;50.804;12.866;2022-09-11T14:09:49;7.40;;;5.90;;
49193;SDS011;35029;50.804;12.866;2022-09-11T14:12:24;9.48;;;6.65;;
49193;SDS011;35029;50.804;12.866;2022-09-11T14:14:51;8.27;;;6.63;;
49193;SDS011;35029;50.804;12.866;2022-09-11T14:17:21;9.02;;;6.60;;
49193;SDS011;35029;50.804;12.866;2022-09-11T14:19:47;7.40;;;6.53;;
49193;SDS011;35029;50.804;12.866;2022-09-11T14:22:20;6.13;;;5.53;;
49193;SDS011;35029;50.804;12.866;2022-09-11T14:24:52;13.60;;;7.32;;
49193;SDS011;35029;50.804;12.866;2022-09-11T14:27:33;8.00;;;7.20;;
49193;SDS011;35029;50.804;12.866;2022-09-11T14:30:21;8.45;;;7.07;;
49193;SDS011;35029;50.804;12.866;2022-09-11T14:35:38;10.07;;;6.72;;
49193;SDS011;35029;50.804;12.866;2022-09-11T14:38:04;6.78;;;6.13;;
49193;SDS011;35029;50.804;12.866;2022-09-11T14:40:30;7.88;;;6.40;;
49193;SDS011;35029;50.804;12.866;2022-09-11T14:42:55;12.93;;;7.82;;
49193;SDS011;35029;50.804;12.866;2022-09-11T14:45:22;14.15;;;12.20;;
49193;SDS011;35029;50.804;12.866;2022-09-11T14:47:50;13.48;;;12.15;;
49193;SDS011;35029;50.804;12.866;2022-09-11T14:50:16;10.80;;;9.70;;
49193;SDS011;35029;50.804;12.866;2022-09-11T14:52:42;8.52;;;7.38;;
49193;SDS011;35029;50.804;12.866;2022-09-11T14:55:13;10.38;;;9.02;;
49193;SDS011;35029;50.804;12.866;2022-09-11T14:57:40;15.65;;;11.63;;
49193;SDS011;35029;50.804;12.866;2022-09-11T15:00:06;13.70;;;10.50;;
49193;SDS011;35029;50.804;12.866;2022-09-11T15:02:32;8.00;;;6.68;;
49193;SDS011;35029;50.804;12.866;2022-09-11T15:04:58;8.45;;;5.57;;
49193;SDS011;35029;50.804;12.866;2022-09-11T15:07:24;6.32;;;5.72;;
49193;SDS011;35029;50.804;12.866;2022-09-11T15:09:51;8.32;;;5.47;;
49193;SDS011;35029;50.804;12.866;2022-09-11T15:12:18;5.63;;;5.07;;
49193;SDS011;35029;50.804;12.866;2022-09-11T15:14:46;5.18;;;4.68;;
49193;SDS011;35029;50.804;12.866;2022-09-11T15:17:12;6.82;;;5.50;;
49193;SDS011;35029;50.804;12.866;2022-09-11T15:19:41;5.63;;;4.32;;
49193;SDS011;35029;50.804;12.866;2022-09-11T15:22:13;4.78;;;3.92;;
49193;SDS011;35029;50.804;12.866;2022-09-11T15:24:39;4.85;;;4.15;;
49193;SDS011;35029;50.804;12.866;2022-09-11T15:27:05;4.47;;;4.07;;
49193;SDS011;35029;50.804;12.866;2022-09-11T15:29:31;4.60;;;4.13;;
49193;SDS011;35029;50.804;12.866;2022-09-11T15:31:58;4.35;;;3.97;;
49193;SDS011;35029;50.804;12.866;2022-09-11T15:34:26;4.10;;;3.70;;
49193;SDS011;35029;50.804;12.866;2022-09-11T15:36:56;4.28;;;3.83;;
49193;SDS011;35029;50.804;12.866;2022-09-11T15:39:21;5.15;;;4.18;;
49193;SDS011;35029;50.804;12.866;2022-09-11T15:41:48;4.72;;;3.92;;
49193;SDS011;35029;50.804;12.866;2022-09-11T15:44:19;6.90;;;4.40;;
49193;SDS011;35029;50.804;12.866;2022-09-11T15:46:46;5.43;;;4.63;;
49193;SDS011;35029;50.804;12.866;2022-09-11T15:49:16;6.78;;;5.05;;
49193;SDS011;35029;50.804;12.866;2022-09-11T15:51:45;7.80;;;5.97;;
49193;SDS011;35029;50.804;12.866;2022-09-11T15:54:10;16.80;;;11.10;;
49193;SDS011;35029;50.804;12.866;2022-09-11T15:56:36;6.03;;;4.63;;
49193;SDS011;35029;50.804;12.866;2022-09-11T15:59:02;8.68;;;4.93;;
49193;SDS011;35029;50.804;12.866;2022-09-11T16:01:29;10.35;;;7.63;;
49193;SDS011;35029;50.804;12.866;2022-09-11T16:04:00;8.15;;;7.03;;
49193;SDS011;35029;50.804;12.866;2022-09-11T16:06:27;15.35;;;9.85;;
49193;SDS011;35029;50.804;12.866;2022-09-11T16:08:55;11.32;;;9.55;;
49193;SDS011;35029;50.804;12.866;2022-09-11T16:11:22;10.75;;;8.27;;
49193;SDS011;35029;50.804;12.866;2022-09-11T16:13:49;7.82;;;6.93;;
49193;SDS011;35029;50.804;12.866;2022-09-11T16:16:16;8.63;;;7.72;;
49193;SDS011;35029;50.804;12.866;2022-09-11T16:18:44;8.32;;;6.97;;
49193;SDS011;35029;50.804;12.866;2022-09-11T16:21:10;6.63;;;5.82;;
49193;SDS011;35029;50.804;12.866;2022-09-11T16:23:38;7.63;;;5.80;;
49193;SDS011;35029;50.804;12.866;2022-09-11T16:26:05;5.85;;;4.70;;
49193;SDS011;35029;50.804;12.866;2022-09-11T16:28:39;6.10;;;5.47;;
49193;SDS011;35029;50.804;12.866;2022-09-11T16:31:05;9.27;;;6.30;;
49193;SDS011;35029;50.804;12.866;2022-09-11T16:33:32;8.45;;;5.85;;
49193;SDS011;35029;50.804;12.866;2022-09-11T16:36:02;5.20;;;4.32;;
49193;SDS011;35029;50.804;12.866;2022-09-11T16:38:31;6.63;;;4.80;;